Main page
METAR-TAF:

METAR-TAF

Airports :

Aérodrome de Dax - Seyresse

Dax, France

latitude: 43-41N, longitude: 001-04W, elevation: 32 m

Current weather observation

The report was made 15 minutes ago, at 15:30 UTC
Wind 5 kt from the West, varying between Southwest and North/Northwest
Temperature 16°C
Humidity 72%
Pressure 1015 hPa
Visibility 10 km or more

METAR: LFBY 201530Z AUTO 28005KT 220V330 9999 // FEW032/// BKN040/// BKN047/// ///TCU 16/11 Q1015

Time: 17:45 (15:45 UTC)

Forecast

The report was made 7 hours and 45 minutes ago, at 08:00 UTC
Forecast valid from 20 at 09 UTC to 20 at 18 UTC
Wind 5 kt from the Southwest
Visibility 10 km or more
Scattered clouds at a height of 2000 ft
Broken clouds at a height of 3000 ft

TAF: LFBY 200800Z 2009/2018 22005KT 9999 SCT020 BKN030

Weather observations and forecasts of more than 4000 airports (METAR and TAF reports).

The available stations are represented by yellow and red dots on the map.

Hover mouse over dot to see the name of the station.

Then click to see weather observations and forecasts.

To change the map : click on the green buttons with a black cross to zoom in, on the green button with a dash to zoom out, or on the green arrows for adjacent maps.


METAR-TAF: